createdAt,value
2018-04-24T00:02:21.528Z,1.63
2018-04-24T00:04:50.210Z,1.70
2018-04-24T00:07:18.428Z,1.77
2018-04-24T00:09:46.693Z,2.00
2018-04-24T00:12:15.487Z,1.87
2018-04-24T00:14:43.721Z,1.77
2018-04-24T00:17:11.918Z,1.90
2018-04-24T00:19:40.549Z,1.80
2018-04-24T00:22:08.778Z,1.80
2018-04-24T00:24:36.985Z,1.63
2018-04-24T00:27:05.687Z,2.13
2018-04-24T00:29:33.920Z,1.70
2018-04-24T00:32:02.121Z,2.00
2018-04-24T00:34:30.963Z,1.87
2018-04-24T00:36:59.183Z,2.67
2018-04-24T00:39:27.373Z,2.27
2018-04-24T00:41:56.168Z,2.47
2018-04-24T00:44:24.405Z,2.80
2018-04-24T00:46:52.599Z,2.07
2018-04-24T00:49:21.160Z,2.50
2018-04-24T00:51:49.400Z,3.00
2018-04-24T00:54:17.618Z,2.10
2018-04-24T00:56:46.333Z,2.07
2018-04-24T00:59:14.667Z,2.03
2018-04-24T01:01:42.858Z,2.47
2018-04-24T01:04:11.539Z,2.43
2018-04-24T01:06:39.817Z,2.70
2018-04-24T01:09:08.788Z,2.90
2018-04-24T01:11:37.242Z,2.17
2018-04-24T01:14:05.928Z,2.90
2018-04-24T01:16:34.167Z,2.20
2018-04-24T01:19:02.397Z,2.87
2018-04-24T01:21:31.270Z,2.53
2018-04-24T01:23:59.461Z,1.80
2018-04-24T01:26:28.193Z,2.80
2018-04-24T01:28:56.790Z,2.80
2018-04-24T01:31:25.008Z,1.93
2018-04-24T01:33:53.444Z,2.30
2018-04-24T01:36:21.912Z,2.20
2018-04-24T01:38:50.141Z,2.30
2018-04-24T01:41:18.563Z,2.37
2018-04-24T01:43:47.253Z,2.40
2018-04-24T01:46:15.472Z,2.57
2018-04-24T01:48:43.745Z,2.77
2018-04-24T01:51:12.407Z,2.70
2018-04-24T01:53:40.609Z,2.57
2018-04-24T01:56:09.024Z,2.77
2018-04-24T01:58:37.620Z,2.37
2018-04-24T02:01:05.819Z,2.90
2018-04-24T02:03:34.084Z,2.23
2018-04-24T02:06:02.803Z,2.53
2018-04-24T02:08:31.004Z,2.03
2018-04-24T02:10:59.343Z,2.50
2018-04-24T02:13:28.069Z,2.80
2018-04-24T02:15:56.274Z,2.37
2018-04-24T02:18:24.450Z,2.40
2018-04-24T02:20:53.051Z,2.70
2018-04-24T02:23:21.256Z,2.67
2018-04-24T02:25:49.565Z,2.87
2018-04-24T02:28:18.266Z,2.90
2018-04-24T02:30:46.527Z,2.77
2018-04-24T02:33:14.749Z,3.07
2018-04-24T02:35:43.294Z,2.50
2018-04-24T02:38:11.497Z,3.07
2018-04-24T02:40:39.980Z,2.80
2018-04-24T02:43:08.497Z,2.80
2018-04-24T02:45:36.699Z,2.87
2018-04-24T02:48:05.065Z,3.03
2018-04-24T02:50:33.844Z,3.13
2018-04-24T02:53:01.984Z,2.97
2018-04-24T02:55:30.161Z,3.20
2018-04-24T02:57:58.926Z,3.50
2018-04-24T03:00:27.150Z,3.03
2018-04-24T03:02:55.374Z,3.43
2018-04-24T03:05:38.243Z,3.20
2018-04-24T03:08:11.785Z,2.87
2018-04-24T03:10:40.539Z,3.27
2018-04-24T03:13:09.219Z,3.73
2018-04-24T03:15:37.456Z,3.00
2018-04-24T03:18:05.768Z,3.70
2018-04-24T03:20:34.493Z,3.50
2018-04-24T03:23:02.742Z,3.73
2018-04-24T03:25:31.053Z,4.53
2018-04-24T03:27:59.639Z,3.87
2018-04-24T03:30:27.879Z,3.80
2018-04-24T03:32:56.130Z,3.43
2018-04-24T03:35:24.667Z,4.03
2018-04-24T03:37:52.850Z,4.00
2018-04-24T03:40:21.280Z,4.10
2018-04-24T03:42:49.902Z,3.60
2018-04-24T03:45:18.088Z,3.87
2018-04-24T03:47:46.534Z,4.23
2018-04-24T03:50:15.079Z,3.83
2018-04-24T03:52:43.289Z,4.33
2018-04-24T03:55:11.674Z,4.47
2018-04-24T03:57:40.153Z,4.30
2018-04-24T04:00:08.379Z,4.77
2018-04-24T04:02:36.781Z,4.40
2018-04-24T04:05:05.463Z,4.60
2018-04-24T04:07:33.682Z,4.67
2018-04-24T04:10:02.073Z,4.57
2018-04-24T04:12:30.689Z,3.97
2018-04-24T04:14:58.895Z,4.70
2018-04-24T04:17:40.111Z,4.90
2018-04-24T04:20:20.771Z,5.20
2018-04-24T04:23:00.970Z,4.37
2018-04-24T04:25:29.184Z,3.80
2018-04-24T04:27:57.393Z,4.23
2018-04-24T04:30:25.899Z,4.57
2018-04-24T04:32:54.188Z,4.07
2018-04-24T04:35:22.479Z,6.20
2018-04-24T04:37:51.041Z,4.23
2018-04-24T04:40:19.247Z,4.27
2018-04-24T04:42:47.538Z,4.10
2018-04-24T04:45:16.263Z,3.60
2018-04-24T04:48:02.620Z,4.57
2018-04-24T04:50:36.232Z,4.57
2018-04-24T04:53:04.459Z,4.13
2018-04-24T04:55:33.195Z,4.13
2018-04-24T04:58:01.928Z,4.80
2018-04-24T05:00:30.232Z,4.20
2018-04-24T05:02:58.581Z,4.37
2018-04-24T05:05:27.450Z,3.43
2018-04-24T05:07:55.654Z,6.87
2018-04-24T05:10:23.843Z,3.63
2018-04-24T05:12:52.478Z,3.57
2018-04-24T05:15:20.714Z,3.30
2018-04-24T05:17:48.921Z,7.23
2018-04-24T05:20:17.557Z,3.40
2018-04-24T05:22:45.807Z,3.40
2018-04-24T05:25:14.009Z,3.37
2018-04-24T05:27:43.417Z,3.40
2018-04-24T05:30:12.310Z,3.10
2018-04-24T05:32:40.521Z,3.33
2018-04-24T05:35:08.722Z,2.90
2018-04-24T05:37:37.440Z,3.47
2018-04-24T05:40:05.659Z,4.20
2018-04-24T05:42:33.897Z,3.20
2018-04-24T05:45:02.498Z,3.40
2018-04-24T05:47:30.714Z,3.17
2018-04-24T05:49:59.026Z,3.63
2018-04-24T05:52:27.738Z,3.40
2018-04-24T05:54:55.899Z,3.10
2018-04-24T05:57:25.702Z,3.60
2018-04-24T05:59:54.646Z,3.20
2018-04-24T06:02:25.891Z,3.50
2018-04-24T06:04:57.547Z,3.50
2018-04-24T06:07:27.550Z,3.70
2018-04-24T06:10:02.519Z,3.30
2018-04-24T06:12:36.371Z,3.10
2018-04-24T06:15:04.989Z,3.20
2018-04-24T06:17:33.257Z,3.50
2018-04-24T06:20:01.786Z,3.40
2018-04-24T06:22:33.003Z,2.80
2018-04-24T06:25:02.920Z,3.03
2018-04-24T06:27:33.622Z,3.00
2018-04-24T06:30:03.391Z,2.80
2018-04-24T06:32:31.837Z,3.30
2018-04-24T06:35:00.061Z,5.33
2018-04-24T06:37:28.850Z,4.20
2018-04-24T06:39:57.469Z,3.07
2018-04-24T06:42:25.689Z,3.33
2018-04-24T06:44:53.953Z,3.20
2018-04-24T06:47:22.533Z,4.33
2018-04-24T06:49:51.953Z,3.27
2018-04-24T06:52:20.132Z,3.37
2018-04-24T06:54:48.345Z,3.50
2018-04-24T06:57:16.560Z,2.90
2018-04-24T06:59:44.890Z,3.10
2018-04-24T07:02:13.594Z,3.03
2018-04-24T07:04:41.805Z,3.63
2018-04-24T07:07:09.996Z,3.47
2018-04-24T07:09:38.589Z,3.47
2018-04-24T07:12:06.789Z,4.07
2018-04-24T07:14:34.992Z,3.30
2018-04-24T07:17:03.672Z,3.47
2018-04-24T07:19:31.884Z,16.10
2018-04-24T07:22:00.187Z,3.70
2018-04-24T07:24:28.680Z,3.70
2018-04-24T07:26:56.880Z,3.43
2018-04-24T07:29:25.101Z,3.43
2018-04-24T07:31:53.815Z,4.13
2018-04-24T07:34:22.025Z,3.27
2018-04-24T07:36:50.247Z,4.10
2018-04-24T07:39:18.937Z,4.17
2018-04-24T07:41:47.133Z,3.90
2018-04-24T07:44:15.343Z,3.60
2018-04-24T07:46:44.080Z,4.97
2018-04-24T07:49:12.296Z,3.80
2018-04-24T07:51:40.513Z,3.20
2018-04-24T07:54:09.133Z,3.50
2018-04-24T07:56:37.914Z,4.10
2018-04-24T07:59:06.260Z,3.90
2018-04-24T08:01:34.967Z,3.53
2018-04-24T08:04:03.166Z,3.20
2018-04-24T08:06:31.468Z,3.73
2018-04-24T08:08:59.974Z,3.90
2018-04-24T08:11:28.206Z,3.80
2018-04-24T08:13:56.606Z,3.50
2018-04-24T08:16:25.114Z,4.20
2018-04-24T08:18:53.344Z,4.00
2018-04-24T08:21:21.637Z,4.67
2018-04-24T08:23:50.140Z,4.73
2018-04-24T08:26:18.463Z,4.20
2018-04-24T08:28:46.724Z,4.10
2018-04-24T08:31:15.316Z,4.30
2018-04-24T08:33:43.563Z,4.23
2018-04-24T08:36:11.934Z,4.57
2018-04-24T08:38:40.401Z,4.60
2018-04-24T08:41:08.604Z,4.07
2018-04-24T08:43:36.899Z,4.90
2018-04-24T08:46:05.591Z,4.63
2018-04-24T08:48:33.829Z,4.87
2018-04-24T08:51:02.085Z,4.97
2018-04-24T08:53:30.631Z,4.97
2018-04-24T08:55:58.890Z,6.00
2018-04-24T08:58:27.167Z,6.17
2018-04-24T09:00:55.792Z,5.90
2018-04-24T09:03:23.997Z,6.10
2018-04-24T09:05:52.348Z,6.03
2018-04-24T09:08:20.787Z,6.60
2018-04-24T09:10:49.026Z,5.57
2018-04-24T09:13:17.339Z,7.10
2018-04-24T09:15:46.412Z,6.87
2018-04-24T09:18:14.640Z,7.70
2018-04-24T09:20:42.898Z,8.13
2018-04-24T09:23:11.538Z,7.83
2018-04-24T09:25:39.763Z,7.33
2018-04-24T09:28:07.976Z,8.47
2018-04-24T09:30:36.589Z,10.30
2018-04-24T09:33:04.842Z,9.13
2018-04-24T09:35:33.074Z,7.47
2018-04-24T09:38:01.679Z,8.27
2018-04-24T09:40:29.896Z,8.63
2018-04-24T09:42:58.099Z,7.70
2018-04-24T09:45:26.411Z,7.37
2018-04-24T09:47:54.606Z,7.40
2018-04-24T09:50:23.012Z,7.47
2018-04-24T09:52:51.624Z,7.73
2018-04-24T09:55:19.824Z,7.50
2018-04-24T09:57:48.046Z,6.67
2018-04-24T10:00:22.387Z,6.67
2018-04-24T10:02:51.125Z,6.87
2018-04-24T10:05:19.337Z,7.13
2018-04-24T10:07:47.580Z,9.50
2018-04-24T10:10:16.301Z,6.80
2018-04-24T10:12:44.500Z,6.70
2018-04-24T10:15:12.702Z,6.30
2018-04-24T10:17:41.332Z,6.60
2018-04-24T10:20:09.542Z,7.10
2018-04-24T10:22:37.776Z,6.73
2018-04-24T10:25:06.482Z,7.73
2018-04-24T10:27:34.679Z,10.23
2018-04-24T10:30:02.890Z,7.20
2018-04-24T10:32:31.505Z,7.67
2018-04-24T10:34:59.684Z,7.37
2018-04-24T10:37:27.901Z,7.67
2018-04-24T10:39:56.625Z,7.27
2018-04-24T10:42:24.826Z,7.23
2018-04-24T10:44:53.026Z,7.17
2018-04-24T10:47:21.744Z,6.57
2018-04-24T10:49:49.941Z,9.70
2018-04-24T10:52:18.153Z,7.23
2018-04-24T10:54:46.814Z,6.70
2018-04-24T10:57:15.015Z,7.03
2018-04-24T10:59:43.230Z,6.43
2018-04-24T11:02:11.909Z,7.37
2018-04-24T11:04:40.114Z,7.23
2018-04-24T11:07:08.390Z,7.40
2018-04-24T11:09:37.167Z,11.20
2018-04-24T11:12:05.405Z,7.53
2018-04-24T11:14:33.644Z,7.83
2018-04-24T11:17:02.228Z,7.70
2018-04-24T11:19:30.440Z,7.60
2018-04-24T11:21:58.676Z,7.47
2018-04-24T11:24:27.269Z,7.43
2018-04-24T11:26:55.475Z,7.10
2018-04-24T11:29:23.653Z,6.93
2018-04-24T11:31:52.360Z,6.57
2018-04-24T11:34:20.633Z,6.80
2018-04-24T11:36:48.792Z,6.90
2018-04-24T11:39:17.496Z,6.80
2018-04-24T11:41:45.679Z,6.83
2018-04-24T11:44:13.963Z,7.07
2018-04-24T11:46:42.620Z,6.83
2018-04-24T11:49:10.855Z,6.33
2018-04-24T11:51:39.077Z,7.03
2018-04-24T11:54:07.771Z,7.53
2018-04-24T11:56:35.992Z,6.60
2018-04-24T11:59:04.191Z,6.87
2018-04-24T12:01:32.812Z,7.30
2018-04-24T12:04:01.009Z,6.87
2018-04-24T12:06:29.227Z,7.00
2018-04-24T12:08:57.922Z,6.67
2018-04-24T12:11:26.126Z,7.27
2018-04-24T12:13:54.318Z,7.20
2018-04-24T12:16:23.072Z,7.43
2018-04-24T12:18:51.284Z,7.20
2018-04-24T12:21:19.490Z,7.10
2018-04-24T12:23:48.189Z,7.77
2018-04-24T12:26:16.460Z,7.53
2018-04-24T12:28:44.650Z,7.67
2018-04-24T12:31:13.326Z,7.93
2018-04-24T12:33:41.544Z,12.33
2018-04-24T12:36:09.757Z,7.37
2018-04-24T12:38:38.404Z,8.00
2018-04-24T12:41:06.617Z,8.07
2018-04-24T12:43:34.813Z,7.97
2018-04-24T12:46:03.521Z,7.87
2018-04-24T12:48:31.737Z,8.57
2018-04-24T12:50:59.949Z,8.33
2018-04-24T12:53:28.579Z,8.67
2018-04-24T12:55:56.800Z,10.37
2018-04-24T12:58:25.035Z,8.70
2018-04-24T13:00:53.595Z,9.47
2018-04-24T13:03:21.815Z,9.40
2018-04-24T13:05:50.221Z,8.60
2018-04-24T13:08:18.947Z,8.47
2018-04-24T13:10:47.149Z,8.73
2018-04-24T13:13:15.364Z,9.00
2018-04-24T13:15:44.038Z,9.57
2018-04-24T13:18:12.279Z,9.17
2018-04-24T13:20:40.513Z,8.83
2018-04-24T13:23:09.122Z,8.80
2018-04-24T13:25:37.411Z,9.30
2018-04-24T13:28:05.595Z,10.37
2018-04-24T13:30:34.195Z,9.60
2018-04-24T13:33:02.414Z,8.97
2018-04-24T13:35:30.629Z,9.27
2018-04-24T13:37:59.374Z,10.60
2018-04-24T13:40:27.574Z,9.50
2018-04-24T13:42:55.796Z,9.60
2018-04-24T13:45:24.481Z,9.90
2018-04-24T13:47:52.695Z,9.20
2018-04-24T13:50:20.902Z,8.87
2018-04-24T13:52:49.550Z,8.40
2018-04-24T13:55:17.850Z,8.80
2018-04-24T13:57:45.964Z,8.93
2018-04-24T14:00:15.242Z,8.77
2018-04-24T14:02:43.447Z,8.87
2018-04-24T14:05:11.754Z,9.67
2018-04-24T14:07:40.404Z,8.90
2018-04-24T14:10:08.652Z,9.20
2018-04-24T14:12:37.001Z,9.33
2018-04-24T14:15:05.419Z,10.27
2018-04-24T14:17:33.644Z,9.13
2018-04-24T14:20:02.044Z,8.10
2018-04-24T14:22:30.542Z,9.07
2018-04-24T14:24:58.733Z,9.73
2018-04-24T14:27:27.061Z,9.00
2018-04-24T14:29:55.605Z,9.63
2018-04-24T14:32:23.836Z,8.53
2018-04-24T14:34:52.131Z,8.47
2018-04-24T14:37:20.820Z,8.70
2018-04-24T14:39:49.061Z,9.23
2018-04-24T14:42:22.222Z,8.23
2018-04-24T14:44:50.899Z,8.40
2018-04-24T14:47:19.109Z,9.17
2018-04-24T14:49:47.350Z,10.10
2018-04-24T14:52:15.884Z,8.83
2018-04-24T14:54:44.129Z,12.60
2018-04-24T14:57:12.558Z,8.70
2018-04-24T14:59:41.070Z,11.20
2018-04-24T15:02:09.306Z,9.03
2018-04-24T15:04:37.547Z,9.60
2018-04-24T15:07:06.089Z,9.13
2018-04-24T15:09:34.305Z,9.90
2018-04-24T15:12:02.480Z,9.80
2018-04-24T15:14:31.116Z,9.03
2018-04-24T15:16:59.361Z,10.07
2018-04-24T15:19:27.574Z,12.63
2018-04-24T15:21:56.154Z,10.00
2018-04-24T15:24:24.357Z,11.33
2018-04-24T15:26:52.600Z,9.50
2018-04-24T15:29:20.844Z,8.70
2018-04-24T15:31:50.598Z,9.20
2018-04-24T15:34:19.469Z,9.20
2018-04-24T15:36:48.279Z,9.33
2018-04-24T15:39:17.287Z,8.83
2018-04-24T15:41:45.506Z,8.73
2018-04-24T15:44:14.265Z,8.47
2018-04-24T15:46:43.240Z,8.67
2018-04-24T15:49:12.237Z,9.43
2018-04-24T15:51:40.466Z,8.77
2018-04-24T15:54:09.437Z,8.83
2018-04-24T15:56:38.250Z,8.50
2018-04-24T15:59:07.243Z,9.60
2018-04-24T16:01:35.449Z,8.60
2018-04-24T16:04:05.213Z,8.47
2018-04-24T16:06:33.643Z,7.97
2018-04-24T16:09:02.423Z,7.80
2018-04-24T16:11:30.747Z,7.90
2018-04-24T16:13:59.445Z,7.90
2018-04-24T16:16:28.301Z,8.10
2018-04-24T16:18:57.345Z,8.87
2018-04-24T16:21:25.563Z,14.57
2018-04-24T16:23:54.326Z,8.70
2018-04-24T16:26:23.264Z,8.33
2018-04-24T16:28:52.288Z,8.97
2018-04-24T16:31:20.525Z,8.27
2018-04-24T16:33:49.325Z,13.60
2018-04-24T16:36:18.110Z,9.53
2018-04-24T16:38:47.140Z,9.87
2018-04-24T16:41:15.355Z,9.20
2018-04-24T16:43:44.184Z,9.33
2018-04-24T16:46:12.933Z,8.60
2018-04-24T16:48:41.175Z,8.33
2018-04-24T16:51:09.406Z,8.17
2018-04-24T16:53:38.184Z,8.57
2018-04-24T16:56:07.130Z,8.30
2018-04-24T16:58:35.360Z,8.80
2018-04-24T17:01:04.256Z,9.50
2018-04-24T17:03:33.028Z,9.13
2018-04-24T17:06:02.169Z,8.67
2018-04-24T17:08:30.318Z,9.20
2018-04-24T17:10:59.165Z,8.73
2018-04-24T17:13:28.025Z,8.60
2018-04-24T17:15:57.024Z,9.23
2018-04-24T17:18:25.234Z,10.97
2018-04-24T17:20:54.035Z,9.20
2018-04-24T17:23:22.932Z,9.20
2018-04-24T17:25:51.888Z,9.60
2018-04-24T17:28:20.092Z,9.27
2018-04-24T17:30:49.016Z,9.40
2018-04-24T17:33:17.474Z,10.17
2018-04-24T17:35:45.680Z,9.83
2018-04-24T17:38:13.864Z,9.43
2018-04-24T17:40:42.438Z,9.90
2018-04-24T17:43:10.649Z,17.83
2018-04-24T17:45:39.002Z,10.47
2018-04-24T17:48:07.529Z,10.90
2018-04-24T17:50:35.727Z,9.93
2018-04-24T17:53:04.125Z,9.90
2018-04-24T17:55:32.722Z,11.63
2018-04-24T17:58:00.993Z,10.33
2018-04-24T18:00:29.206Z,10.00
2018-04-24T18:02:57.892Z,9.80
2018-04-24T18:05:26.175Z,10.03
2018-04-24T18:07:54.378Z,11.20
2018-04-24T18:10:22.858Z,12.33
2018-04-24T18:12:51.870Z,10.40
2018-04-24T18:15:20.084Z,8.70
2018-04-24T18:17:48.667Z,10.27
2018-04-24T18:20:17.522Z,9.17
2018-04-24T18:22:45.725Z,9.43
2018-04-24T18:25:14.114Z,9.50
2018-04-24T18:27:42.881Z,9.87
2018-04-24T18:30:11.063Z,10.60
2018-04-24T18:32:39.314Z,9.77
2018-04-24T18:35:08.859Z,10.30
2018-04-24T18:37:37.127Z,9.87
2018-04-24T18:40:05.365Z,9.47
2018-04-24T18:42:33.837Z,9.73
2018-04-24T18:45:02.057Z,9.50
2018-04-24T18:47:30.494Z,9.57
2018-04-24T18:49:58.949Z,9.27
2018-04-24T18:52:27.137Z,10.93
2018-04-24T18:54:55.891Z,8.43
2018-04-24T18:57:24.373Z,10.10
2018-04-24T18:59:52.592Z,10.13
2018-04-24T19:02:20.946Z,10.33
2018-04-24T19:04:49.538Z,9.77
2018-04-24T19:07:17.741Z,8.60
2018-04-24T19:09:46.020Z,9.43
2018-04-24T19:12:14.566Z,9.53
2018-04-24T19:14:42.791Z,7.73
2018-04-24T19:17:11.091Z,8.77
2018-04-24T19:19:39.615Z,8.47
2018-04-24T19:22:07.834Z,8.93
2018-04-24T19:24:41.911Z,8.13
2018-04-24T19:27:10.394Z,7.93
2018-04-24T19:29:39.016Z,8.53
2018-04-24T19:32:12.829Z,8.80
2018-04-24T19:34:41.128Z,7.47
2018-04-24T19:37:09.601Z,9.00
2018-04-24T19:39:44.110Z,8.30
2018-04-24T19:42:12.361Z,8.23
2018-04-24T19:44:41.086Z,8.93
2018-04-24T19:47:09.663Z,8.37
2018-04-24T19:49:44.231Z,9.07
2018-04-24T19:52:12.433Z,8.00
2018-04-24T19:54:46.960Z,8.40
2018-04-24T19:57:15.409Z,8.23
2018-04-24T19:59:44.033Z,9.00
2018-04-24T20:02:12.259Z,9.60
2018-04-24T20:04:40.484Z,9.13
2018-04-24T20:07:09.092Z,9.13
2018-04-24T20:09:37.311Z,9.27
2018-04-24T20:12:06.077Z,10.40
2018-04-24T20:14:34.557Z,8.63
2018-04-24T20:17:02.790Z,9.07
2018-04-24T20:19:31.034Z,8.73
2018-04-24T20:21:59.527Z,9.97
2018-04-24T20:24:27.799Z,8.70
2018-04-24T20:26:56.044Z,9.10
2018-04-24T20:29:24.591Z,8.77
2018-04-24T20:31:52.841Z,8.50
2018-04-24T20:34:21.056Z,8.10
2018-04-24T20:36:49.605Z,8.30
2018-04-24T20:39:17.834Z,10.90
2018-04-24T20:41:46.111Z,7.90
2018-04-24T20:44:14.807Z,8.17
2018-04-24T20:46:43.028Z,8.43
2018-04-24T20:49:11.297Z,8.80
2018-04-24T20:51:39.809Z,8.63
2018-04-24T20:54:08.012Z,8.17
2018-04-24T20:56:36.335Z,8.30
2018-04-24T20:59:04.934Z,9.27
2018-04-24T21:01:33.163Z,8.73
2018-04-24T21:04:01.385Z,8.77
2018-04-24T21:06:29.988Z,9.17
2018-04-24T21:08:58.224Z,9.03
2018-04-24T21:11:26.474Z,9.03
2018-04-24T21:13:55.130Z,8.63
2018-04-24T21:16:23.364Z,8.67
2018-04-24T21:18:51.601Z,9.60
2018-04-24T21:21:20.194Z,8.57
2018-04-24T21:23:48.387Z,8.43
2018-04-24T21:26:16.685Z,8.60
2018-04-24T21:28:45.337Z,9.57
2018-04-24T21:31:13.537Z,8.87
2018-04-24T21:33:41.942Z,9.03
2018-04-24T21:36:10.425Z,10.27
2018-04-24T21:38:38.622Z,9.37
2018-04-24T21:41:06.875Z,10.50
2018-04-24T21:43:35.420Z,9.77
2018-04-24T21:46:03.660Z,10.07
2018-04-24T21:48:32.132Z,10.60
2018-04-24T21:51:00.603Z,9.93
2018-04-24T21:53:28.821Z,10.23
2018-04-24T21:55:57.223Z,10.90
2018-04-24T21:58:25.720Z,9.87
2018-04-24T22:00:53.946Z,10.50
2018-04-24T22:03:22.279Z,11.67
2018-04-24T22:05:50.814Z,10.63
2018-04-24T22:08:19.026Z,10.50
2018-04-24T22:10:47.396Z,10.50
2018-04-24T22:13:15.920Z,11.10
2018-04-24T22:15:44.134Z,10.57
2018-04-24T22:18:13.081Z,10.77
2018-04-24T22:20:41.723Z,10.93
2018-04-24T22:23:10.452Z,11.80
2018-04-24T22:25:38.661Z,11.47
2018-04-24T22:28:06.879Z,10.90
2018-04-24T22:30:35.570Z,11.03
2018-04-24T22:33:03.826Z,10.57
2018-04-24T22:35:32.022Z,11.13
2018-04-24T22:38:00.631Z,10.33
2018-04-24T22:40:28.849Z,10.63
2018-04-24T22:42:57.137Z,11.20
2018-04-24T22:45:25.744Z,11.53
2018-04-24T22:47:53.946Z,10.90
2018-04-24T22:50:22.144Z,11.27
2018-04-24T22:52:50.770Z,10.73
2018-04-24T22:55:18.987Z,10.07
2018-04-24T22:57:47.256Z,9.80
2018-04-24T23:00:16.423Z,10.30
2018-04-24T23:02:44.629Z,11.10
2018-04-24T23:05:13.040Z,10.83
2018-04-24T23:07:41.541Z,11.13
2018-04-24T23:10:09.205Z,10.90
2018-04-24T23:12:49.193Z,10.57
2018-04-24T23:15:29.287Z,10.23
2018-04-24T23:18:09.415Z,10.23
2018-04-24T23:20:37.063Z,10.20
2018-04-24T23:23:05.312Z,10.13
2018-04-24T23:25:33.541Z,9.17
2018-04-24T23:28:02.303Z,9.03
2018-04-24T23:30:30.623Z,9.40
2018-04-24T23:32:58.795Z,9.10
2018-04-24T23:35:27.394Z,9.10
2018-04-24T23:37:55.634Z,8.73
2018-04-24T23:40:23.869Z,8.43
2018-04-24T23:42:52.520Z,8.20
2018-04-24T23:45:20.768Z,8.93
2018-04-24T23:47:48.980Z,8.97
2018-04-24T23:50:17.596Z,7.93
2018-04-24T23:52:45.866Z,8.57
2018-04-24T23:55:14.073Z,7.40
2018-04-24T23:57:42.825Z,8.13
